Aviation Digital Data Service (ADDS)

Output produced by METARs form (0544 UTC 27 January 2015)
found at http://www.aviationweather.gov/adds/metars/
 
KJFK 270528Z 2706/2812 36027G38KT 1/2SM SN FZFG OVC008 
     TEMPO 2706/2710 1/4SM +SN FZFG BLSN VV005 
     FM271600 33025G35KT 1/2SM SN FZFG BLSN OVC008 
     FM272200 33020G33KT 2SM -SN BLSN OVC020 
     FM280200 32018G28KT 2SM -SHSN OVC035 
     FM280500 32016G24KT P6SM SCT040 SCT100